To NAV CANADA Home Page Login to a new session Search on AWWS site Feedback and Comments Disclaimer Vers la page française équivalente Tips FAQ What's new on the site To the Forecasts and Observations / NOTAM section To "File a Flight Plan" website Publications and other links Update of the User's profile FIC Telephone Numbers My Weather Data Folder Route Weather Data Regional Weather Data Local Weather Data To the Forecasts and Observations / NOTAM section
Request Generated 02/10/2016 at 04:26:24 UTC . Weather information available at that time is displayed.

METAR/TAF

STEPHENVILLE/NL    

METAR CYJT 100400Z 06014G20KT 15SM DRSN BKN030 M02/M05 A2938 RMK SC5
PRESFR SLP951=
METAR CYJT 100300Z 06018G24KT 15SM DRSN BKN028 M02/M05 A2940 RMK SC6
PRESFR SLP958=
METAR CYJT 100200Z 07018G28KT 15SM DRSN BKN025 M02/M06 A2942 RMK SC5
SLP965=

TAF AMD CYJT 092351Z 1000/1024 06015G25KT 5SM -SN BLSN OVC020 TEMPO
1000/1005 P6SM -SN OVC025
BECMG 1002/1004 06012KT
FM100500 06008KT 3SM -SN OVC020 TEMPO 1005/1007 6SM -SN OVC025
FM100700 01008KT 2SM -SN OVC020 TEMPO 1007/1009 3SM -SN OVC025
FM100900 32008KT 5SM -SN OVC020 TEMPO 1009/1011 6SM -SN OVC025
FM101100 27015KT 6SM -SN BKN025 TEMPO 1011/1013 3SM -SHSN BKN020
FM101300 26020G30KT 3SM -SHSN BLSN BKN025
RMK NXT FCST BY 100600Z=
Your time UTC time
Weather data provided by Environment Canada and NAV CANADA